Time;durP1;ratioP1;P1;durP2;ratioP2;P2;SDS_P1;SDS_P2;PMS_P1;PMS_P2;Temp;Humidity;BMP_temperature;BMP_pressure;BME280_temperature;BME280_humidity;BME280_pressure;Samples;Min_cycle;Max_cycle;Signal;HPM_P1;HPM_P2
2022/01/01 00:02:25;;;;;;;17.25;12.82;;;10.20;29.00;;;;;;5044068;28;20046;-71
2022/01/01 00:05:12;;;;;;;18.67;12.30;;;10.20;28.60;;;;;;5046683;28;20108;-71
2022/01/01 00:07:44;;;;;;;17.52;11.25;;;10.20;27.50;;;;;;5046194;28;20056;-71
2022/01/01 00:10:12;;;;;;;15.00;11.30;;;10.20;27.50;;;;;;5045984;28;20516;-71
2022/01/01 00:12:42;;;;;;;15.75;11.20;;;10.10;28.10;;;;;;5072147;28;20037;-71
2022/01/01 00:15:10;;;;;;;16.58;11.20;;;10.10;27.70;;;;;;5063220;28;20053;-70
2022/01/01 00:17:38;;;;;;;17.08;12.45;;;10.10;27.50;;;;;;5049126;28;20041;-70
2022/01/01 00:20:10;;;;;;;19.67;12.52;;;10.10;27.20;;;;;;5045769;28;20063;-71
2022/01/01 00:22:41;;;;;;;16.38;12.52;;;10.10;27.20;;;;;;5038045;28;20086;-70
2022/01/01 00:25:11;;;;;;;19.35;13.10;;;10.00;27.10;;;;;;5047574;28;20043;-71
2022/01/01 00:27:40;;;;;;;17.15;12.32;;;10.00;27.20;;;;;;5047947;28;20124;-71
2022/01/01 00:30:10;;;;;;;16.38;11.70;;;10.00;26.70;;;;;;5061261;28;20056;-71
2022/01/01 00:32:43;;;;;;;17.67;11.05;;;10.00;26.70;;;;;;5066611;28;20043;-71
2022/01/01 00:35:14;;;;;;;21.17;14.38;;;10.10;25.90;;;;;;5063939;28;20466;-70
2022/01/01 00:37:42;;;;;;;21.75;15.10;;;10.10;26.10;;;;;;5065766;28;20048;-70
2022/01/01 00:40:11;;;;;;;21.17;14.80;;;10.10;26.70;;;;;;5066135;28;20048;-70
2022/01/01 00:42:39;;;;;;;21.00;13.65;;;10.00;26.60;;;;;;5060444;28;20055;-70
2022/01/01 00:45:08;;;;;;;21.15;14.00;;;10.00;27.50;;;;;;5067854;28;20048;-70
2022/01/01 00:47:37;;;;;;;22.70;13.40;;;10.00;28.10;;;;;;5063870;28;20043;-70
2022/01/01 00:50:06;;;;;;;23.20;14.70;;;10.00;27.30;;;;;;5062790;28;20419;-71
2022/01/01 00:52:35;;;;;;;22.65;14.70;;;10.00;27.50;;;;;;5062457;28;20511;-70
2022/01/01 00:55:04;;;;;;;21.67;14.77;;;10.00;27.60;;;;;;5062292;28;20045;-70
2022/01/01 00:57:34;;;;;;;22.33;14.95;;;10.00;27.30;;;;;;5065688;28;20553;-70
2022/01/01 01:00:02;;;;;;;21.00;14.20;;;10.10;27.60;;;;;;5067812;28;20174;-70
2022/01/01 01:02:31;;;;;;;25.75;15.45;;;10.00;28.80;;;;;;5062904;28;20131;-70
2022/01/01 01:04:59;;;;;;;21.35;14.05;;;9.90;30.00;;;;;;5048585;28;20492;-71
2022/01/01 01:07:27;;;;;;;21.92;14.27;;;9.90;29.50;;;;;;5047643;28;20132;-70
2022/01/01 01:09:57;;;;;;;21.42;14.50;;;9.90;29.60;;;;;;5027006;28;20041;-69
2022/01/01 01:12:37;;;;;;;20.70;14.02;;;9.90;30.00;;;;;;5041079;28;20401;-71
2022/01/01 01:15:17;;;;;;;21.75;13.95;;;10.00;29.70;;;;;;5046934;28;20064;-72
2022/01/01 01:17:47;;;;;;;19.50;13.60;;;9.90;31.90;;;;;;5052920;28;20491;-70
2022/01/01 01:20:15;;;;;;;20.15;14.20;;;9.90;32.00;;;;;;5056701;28;20052;-70
2022/01/01 01:22:44;;;;;;;20.90;14.13;;;9.90;32.70;;;;;;5048683;28;20099;-71
2022/01/01 01:25:14;;;;;;;21.23;14.32;;;9.90;32.50;;;;;;5045095;28;20094;-72
2022/01/01 01:27:42;;;;;;;21.45;14.20;;;9.90;31.50;;;;;;5043545;28;20041;-70
2022/01/01 01:30:15;;;;;;;22.55;15.10;;;10.00;31.50;;;;;;5063625;28;20044;-71
2022/01/01 01:32:44;;;;;;;24.20;14.60;;;10.00;31.30;;;;;;5046569;28;20565;-70
2022/01/01 01:35:13;;;;;;;23.02;15.70;;;10.10;32.80;;;;;;5064147;28;20078;-70
2022/01/01 01:37:42;;;;;;;24.00;16.08;;;10.10;32.90;;;;;;5059379;28;20053;-71
2022/01/01 01:40:11;;;;;;;21.67;15.65;;;10.00;35.10;;;;;;5041125;28;20132;-71
2022/01/01 01:42:43;;;;;;;24.25;16.20;;;10.00;37.00;;;;;;5038048;28;20040;-71
2022/01/01 01:45:16;;;;;;;20.02;13.50;;;9.90;39.50;;;;;;5045965;28;20045;-70
2022/01/01 01:47:45;;;;;;;20.80;13.87;;;9.90;43.30;;;;;;5044215;28;20045;-70
2022/01/01 01:50:15;;;;;;;20.15;13.73;;;9.90;45.20;;;;;;5040099;28;20393;-70
2022/01/01 01:52:51;;;;;;;20.90;13.02;;;9.90;47.00;;;;;;5043753;28;20048;-69
2022/01/01 01:55:19;;;;;;;21.00;13.57;;;9.90;49.80;;;;;;5043618;28;20508;-70
2022/01/01 01:57:49;;;;;;;17.70;12.63;;;9.80;50.60;;;;;;5046371;28;20048;-69
2022/01/01 02:00:41;;;;;;;18.33;12.77;;;9.80;51.60;;;;;;5044759;28;20041;-70
2022/01/01 02:03:10;;;;;;;16.92;12.27;;;9.80;52.00;;;;;;5041252;28;20052;-70
2022/01/01 02:05:39;;;;;;;23.05;13.55;;;9.90;52.10;;;;;;5042469;28;20544;-70
2022/01/01 02:08:08;;;;;;;21.92;12.98;;;9.80;51.80;;;;;;5045773;28;20798;-70
2022/01/01 02:10:36;;;;;;;23.35;13.68;;;9.90;51.60;;;;;;5041270;28;20049;-70
2022/01/01 02:13:12;;;;;;;18.52;12.85;;;9.90;50.90;;;;;;5042270;28;20111;-70
2022/01/01 02:15:47;;;;;;;17.63;12.43;;;9.80;50.70;;;;;;5044905;28;20048;-70
2022/01/01 02:18:15;;;;;;;21.65;12.75;;;9.90;49.90;;;;;;5045271;28;20603;-70
2022/01/01 02:20:49;;;;;;;20.60;13.63;;;9.90;49.50;;;;;;5040552;28;20100;-70
2022/01/01 02:23:17;;;;;;;19.90;13.25;;;9.90;48.60;;;;;;5040231;28;20049;-69
2022/01/01 02:25:49;;;;;;;20.65;12.07;;;9.90;48.10;;;;;;5043833;28;20041;-70
2022/01/01 02:28:18;;;;;;;17.63;11.55;;;9.90;47.80;;;;;;5048495;28;20508;-70
2022/01/01 02:30:46;;;;;;;18.52;11.35;;;9.90;47.70;;;;;;5044649;28;20136;-70
2022/01/01 02:33:14;;;;;;;17.33;11.88;;;9.90;46.20;;;;;;5042860;28;20053;-70
2022/01/01 02:35:42;;;;;;;18.48;12.05;;;10.00;45.20;;;;;;5048956;28;20048;-70
2022/01/01 02:38:12;;;;;;;17.08;11.77;;;10.00;45.30;;;;;;5044899;28;20047;-69
2022/01/01 02:40:40;;;;;;;17.58;11.43;;;10.00;45.30;;;;;;5056899;28;20063;-69
2022/01/01 02:43:08;;;;;;;17.35;11.05;;;9.90;46.20;;;;;;5047008;28;20411;-69
2022/01/01 02:45:37;;;;;;;18.67;11.77;;;9.90;46.20;;;;;;5046796;28;20060;-70
2022/01/01 02:48:05;;;;;;;16.67;11.52;;;9.90;46.30;;;;;;5068702;28;20106;-69
2022/01/01 02:50:33;;;;;;;17.02;11.82;;;9.90;46.90;;;;;;5049206;28;20041;-69
2022/01/01 02:53:01;;;;;;;18.30;11.05;;;10.00;45.60;;;;;;5040862;28;20106;-70
2022/01/01 02:55:32;;;;;;;16.48;11.30;;;10.00;45.40;;;;;;5049344;28;20041;-70
2022/01/01 02:58:02;;;;;;;19.35;11.57;;;10.00;45.40;;;;;;5046070;28;20512;-69
2022/01/01 03:00:29;;;;;;;16.63;10.77;;;10.00;45.30;;;;;;5039989;28;20044;-69
2022/01/01 03:02:57;;;;;;;14.50;9.65;;;10.00;44.20;;;;;;5065623;28;20052;-69
2022/01/01 03:05:27;;;;;;;14.68;10.27;;;10.10;43.60;;;;;;5067153;28;20055;-69
2022/01/01 03:07:55;;;;;;;19.98;11.57;;;10.10;42.60;;;;;;5051654;28;20531;-69
2022/01/01 03:10:24;;;;;;;15.32;9.90;;;10.10;41.60;;;;;;5029957;28;20126;-69
2022/01/01 03:12:55;;;;;;;14.10;10.27;;;10.20;40.60;;;;;;5042118;28;20120;-69
2022/01/01 03:15:23;;;;;;;20.40;10.52;;;10.20;40.40;;;;;;5040351;28;20513;-70
2022/01/01 03:17:51;;;;;;;16.08;11.13;;;10.20;39.90;;;;;;5051845;28;20289;-69
2022/01/01 03:20:21;;;;;;;18.70;12.23;;;10.20;40.00;;;;;;5044109;28;20051;-70
2022/01/01 03:22:49;;;;;;;15.88;10.48;;;10.20;40.50;;;;;;5037655;28;20061;-70
2022/01/01 03:25:17;;;;;;;19.55;11.80;;;10.10;40.80;;;;;;5034752;28;20068;-70
2022/01/01 03:27:45;;;;;;;16.38;12.05;;;10.10;41.30;;;;;;5046774;28;20530;-69
2022/01/01 03:30:15;;;;;;;20.33;11.25;;;10.10;41.60;;;;;;5044672;28;20048;-69
2022/01/01 03:32:44;;;;;;;14.95;10.40;;;10.10;41.70;;;;;;5046449;28;20043;-69
2022/01/01 03:35:12;;;;;;;18.45;10.88;;;10.00;42.00;;;;;;5044914;28;20049;-69
2022/01/01 03:37:40;;;;;;;18.23;11.68;;;10.10;42.10;;;;;;5045613;28;20041;-69
2022/01/01 03:40:10;;;;;;;18.45;12.07;;;10.00;42.00;;;;;;5046796;28;20070;-69
2022/01/01 03:42:38;;;;;;;19.45;11.60;;;10.00;42.30;;;;;;5042980;28;20140;-69
2022/01/01 03:45:07;;;;;;;22.15;13.70;;;10.00;41.80;;;;;;5047334;28;20046;-69
2022/01/01 03:47:37;;;;;;;22.77;14.55;;;9.90;42.50;;;;;;5047235;28;20048;-69
2022/01/01 03:50:06;;;;;;;28.00;16.80;;;9.90;42.70;;;;;;5039433;28;20049;-70
2022/01/01 03:52:40;;;;;;;25.13;17.13;;;10.00;40.70;;;;;;5044163;28;20041;-70
2022/01/01 03:55:09;;;;;;;29.02;19.17;;;9.90;40.70;;;;;;5048664;28;20095;-69
2022/01/01 03:57:37;;;;;;;29.50;20.27;;;9.90;40.60;;;;;;5043738;28;20055;-69
2022/01/01 04:00:08;;;;;;;34.00;21.67;;;9.80;39.70;;;;;;5064235;28;20048;-68
2022/01/01 04:02:45;;;;;;;33.97;22.42;;;9.80;39.20;;;;;;5063323;28;20051;-69
2022/01/01 04:05:13;;;;;;;35.00;22.27;;;9.80;39.40;;;;;;5049506;28;20098;-69
2022/01/01 04:07:42;;;;;;;34.95;22.88;;;9.80;38.70;;;;;;5045523;28;20717;-69
2022/01/01 04:10:17;;;;;;;35.38;23.05;;;9.80;37.80;;;;;;5047333;28;20077;-70
2022/01/01 04:12:45;;;;;;;36.47;23.77;;;9.80;38.70;;;;;;5045729;28;20045;-69
2022/01/01 04:15:13;;;;;;;37.95;24.27;;;9.70;38.30;;;;;;5047600;28;20091;-69
2022/01/01 04:17:42;;;;;;;39.90;23.83;;;9.80;39.00;;;;;;5061553;28;20059;-69
2022/01/01 04:20:11;;;;;;;37.25;22.73;;;9.80;37.80;;;;;;5047584;28;20518;-69
2022/01/01 04:22:39;;;;;;;37.97;23.17;;;9.90;36.70;;;;;;5045816;28;20044;-69
2022/01/01 04:25:07;;;;;;;36.20;22.48;;;9.90;36.60;;;;;;5049264;28;20044;-69
2022/01/01 04:27:36;;;;;;;33.92;22.60;;;9.80;35.40;;;;;;5027248;28;20102;-69
2022/01/01 04:30:05;;;;;;;30.40;19.63;;;9.80;36.00;;;;;;5043220;28;20045;-70
2022/01/01 04:32:33;;;;;;;34.65;22.50;;;9.80;35.70;;;;;;5050882;28;20047;-68
2022/01/01 04:35:02;;;;;;;32.65;22.38;;;9.80;36.40;;;;;;5057270;28;20053;-69
2022/01/01 04:37:32;;;;;;;30.77;20.67;;;9.70;36.00;;;;;;5063732;28;20487;-69
2022/01/01 04:40:01;;;;;;;32.58;21.80;;;9.80;36.20;;;;;;5042561;28;20053;-68
2022/01/01 04:42:30;;;;;;;30.98;20.83;;;9.80;34.70;;;;;;5042634;28;20049;-69
2022/01/01 04:44:58;;;;;;;31.90;21.08;;;9.70;34.40;;;;;;5073897;28;20141;-69
2022/01/01 04:47:26;;;;;;;31.50;20.05;;;9.70;35.00;;;;;;5065531;28;20105;-69
2022/01/01 04:49:54;;;;;;;31.33;20.63;;;9.60;35.30;;;;;;5063392;28;20060;-70
2022/01/01 04:52:24;;;;;;;32.85;21.80;;;9.60;35.40;;;;;;5067234;28;20052;-69
2022/01/01 04:54:52;;;;;;;33.55;21.67;;;9.50;34.70;;;;;;5064754;28;20054;-69
2022/01/01 04:57:20;;;;;;;39.33;25.13;;;9.50;35.30;;;;;;5061565;28;20051;-69
2022/01/01 04:59:48;;;;;;;38.80;24.33;;;9.40;35.70;;;;;;5066290;28;20132;-68
2022/01/01 05:02:16;;;;;;;40.22;25.67;;;9.30;35.50;;;;;;5063735;28;20040;-68
2022/01/01 05:04:44;;;;;;;39.88;24.73;;;9.10;36.20;;;;;;5066389;28;20048;-67
2022/01/01 05:07:12;;;;;;;40.15;26.70;;;9.00;37.20;;;;;;5066565;28;20044;-69
2022/01/01 05:09:44;;;;;;;47.08;28.77;;;9.00;38.60;;;;;;5045016;28;20049;-70
2022/01/01 05:12:12;;;;;;;49.33;29.17;;;9.00;39.00;;;;;;5041296;28;20132;-69
2022/01/01 05:14:40;;;;;;;45.28;28.00;;;8.80;39.30;;;;;;5047608;28;20041;-69
2022/01/01 05:17:11;;;;;;;43.30;27.05;;;8.70;40.30;;;;;;5046955;28;20047;-68
2022/01/01 05:19:39;;;;;;;42.38;27.02;;;8.70;41.00;;;;;;5045502;28;20045;-68
2022/01/01 05:22:10;;;;;;;47.75;26.73;;;8.70;41.20;;;;;;5037811;28;20154;-68
2022/01/01 05:24:38;;;;;;;41.78;25.13;;;8.60;41.50;;;;;;5041320;28;20545;-69
2022/01/01 05:27:08;;;;;;;39.47;25.38;;;8.60;41.90;;;;;;5042750;28;20566;-69
2022/01/01 05:29:38;;;;;;;43.28;26.40;;;8.50;41.90;;;;;;5051023;28;20056;-68
2022/01/01 05:32:10;;;;;;;38.67;25.55;;;8.50;42.00;;;;;;5040870;28;20043;-68
2022/01/01 05:34:38;;;;;;;38.65;24.17;;;8.50;42.00;;;;;;5046932;28;20056;-67
2022/01/01 05:37:06;;;;;;;40.00;26.02;;;8.50;42.30;;;;;;5051959;28;20056;-68
2022/01/01 05:39:35;;;;;;;39.78;25.30;;;8.40;41.90;;;;;;5048306;28;20228;-68
2022/01/01 05:42:04;;;;;;;38.13;25.90;;;8.30;42.30;;;;;;5045638;28;20049;-68
2022/01/01 05:44:33;;;;;;;39.95;24.33;;;8.20;43.10;;;;;;5041997;28;20094;-68
2022/01/01 05:47:01;;;;;;;35.85;24.98;;;8.20;44.90;;;;;;5054130;28;20141;-68
2022/01/01 05:49:29;;;;;;;39.72;24.13;;;8.10;44.70;;;;;;5064717;28;20136;-68
2022/01/01 05:51:57;;;;;;;36.20;24.60;;;8.10;45.50;;;;;;5058976;28;20510;-68
2022/01/01 05:54:25;;;;;;;40.50;25.45;;;8.10;44.80;;;;;;5067187;28;20151;-68
2022/01/01 05:56:55;;;;;;;37.17;23.35;;;8.10;44.80;;;;;;5053502;28;20048;-68
2022/01/01 05:59:22;;;;;;;35.30;23.00;;;8.20;44.90;;;;;;5060929;28;20040;-68
2022/01/01 06:01:52;;;;;;;35.72;22.30;;;8.10;44.80;;;;;;5060776;28;20053;-68
2022/01/01 06:04:20;;;;;;;32.90;23.17;;;8.10;44.80;;;;;;5073815;28;20056;-70
2022/01/01 06:06:48;;;;;;;35.78;23.20;;;8.10;44.80;;;;;;5069305;28;20411;-68
2022/01/01 06:09:16;;;;;;;35.50;22.40;;;8.10;44.80;;;;;;5067262;28;20627;-68
2022/01/01 06:11:45;;;;;;;36.45;22.63;;;8.10;45.10;;;;;;5063360;28;20449;-68
2022/01/01 06:14:16;;;;;;;33.75;22.52;;;8.00;44.80;;;;;;5063542;28;20484;-67
2022/01/01 06:16:44;;;;;;;38.28;23.13;;;8.10;45.50;;;;;;5052862;28;20429;-67
2022/01/01 06:19:13;;;;;;;38.70;23.67;;;8.10;45.90;;;;;;5065031;28;20405;-68
2022/01/01 06:21:41;;;;;;;38.97;24.08;;;8.10;46.10;;;;;;5040914;28;20496;-68
2022/01/01 06:24:10;;;;;;;34.80;23.55;;;8.10;46.20;;;;;;5041156;28;20417;-68
2022/01/01 06:26:39;;;;;;;39.15;23.88;;;8.10;45.90;;;;;;5045961;28;20047;-68
2022/01/01 06:29:07;;;;;;;38.22;23.42;;;8.10;45.70;;;;;;5052076;28;20040;-67
2022/01/01 06:31:35;;;;;;;35.70;23.00;;;8.20;46.30;;;;;;5058788;28;20140;-67
2022/01/01 06:34:03;;;;;;;34.70;22.20;;;8.20;46.20;;;;;;5063504;28;20083;-67
2022/01/01 06:36:32;;;;;;;33.05;21.02;;;8.20;45.70;;;;;;5060373;28;20072;-67
2022/01/01 06:39:00;;;;;;;24.85;15.55;;;8.30;45.50;;;;;;5046011;28;20124;-68
2022/01/01 06:41:28;;;;;;;16.98;11.20;;;8.40;43.30;;;;;;5041054;28;20431;-68
2022/01/01 06:43:56;;;;;;;20.73;11.70;;;8.50;39.40;;;;;;5042671;28;20523;-68
2022/01/01 06:46:24;;;;;;;20.30;10.95;;;8.60;36.40;;;;;;5046275;28;20147;-69
2022/01/01 06:48:52;;;;;;;16.10;10.88;;;8.60;33.70;;;;;;5047821;28;20203;-68
2022/01/01 06:51:21;;;;;;;13.23;8.90;;;8.60;34.60;;;;;;5060544;28;20408;-67
2022/01/01 06:53:50;;;;;;;13.75;9.15;;;8.70;33.30;;;;;;5062608;28;20096;-68
2022/01/01 06:56:19;;;;;;;13.10;8.70;;;8.70;31.60;;;;;;5064535;28;20036;-67
2022/01/01 06:58:47;;;;;;;11.85;8.25;;;8.70;30.40;;;;;;5062337;28;20040;-68
2022/01/01 07:01:15;;;;;;;12.68;8.05;;;8.80;29.60;;;;;;5059960;28;20040;-68
2022/01/01 07:03:43;;;;;;;12.38;8.02;;;8.80;28.90;;;;;;5062029;28;20426;-68
2022/01/01 07:06:11;;;;;;;10.70;7.60;;;8.80;29.70;;;;;;5059189;28;20051;-68
2022/01/01 07:08:39;;;;;;;11.85;7.50;;;8.80;30.30;;;;;;5063419;28;20562;-69
2022/01/01 07:11:08;;;;;;;13.15;7.93;;;8.70;30.40;;;;;;5059438;28;20047;-67
2022/01/01 07:13:37;;;;;;;14.25;9.27;;;8.70;29.50;;;;;;5061187;28;20611;-67
2022/01/01 07:16:06;;;;;;;17.92;11.70;;;8.80;30.00;;;;;;5067097;28;20047;-68
2022/01/01 07:18:34;;;;;;;18.00;12.15;;;8.80;30.90;;;;;;5068414;28;20407;-68
2022/01/01 07:21:02;;;;;;;20.33;13.27;;;8.80;31.30;;;;;;5041644;28;20049;-67
2022/01/01 07:23:30;;;;;;;23.05;14.45;;;8.80;32.40;;;;;;5047975;28;20048;-67
2022/01/01 07:25:58;;;;;;;27.05;16.08;;;8.70;33.20;;;;;;5046306;28;20484;-67
2022/01/01 07:28:27;;;;;;;26.58;16.45;;;8.70;34.80;;;;;;5052105;28;20058;-67
2022/01/01 07:30:55;;;;;;;27.42;18.33;;;8.70;36.40;;;;;;5065505;28;20103;-68
2022/01/01 07:33:23;;;;;;;27.45;17.70;;;8.70;36.90;;;;;;5065383;28;20131;-68
2022/01/01 07:35:53;;;;;;;26.75;17.27;;;8.70;36.90;;;;;;5052961;28;20083;-68
2022/01/01 07:38:22;;;;;;;25.40;16.98;;;8.60;36.80;;;;;;5056926;28;20128;-68
2022/01/01 07:40:50;;;;;;;25.48;16.30;;;8.60;36.20;;;;;;5044338;28;20559;-69
2022/01/01 07:43:20;;;;;;;26.67;16.67;;;8.50;36.20;;;;;;5043781;28;20044;-67
2022/01/01 07:45:52;;;;;;;22.05;14.70;;;8.50;35.90;;;;;;5051321;28;20057;-69
2022/01/01 07:48:20;;;;;;;23.35;15.18;;;8.50;34.20;;;;;;5047065;28;20049;-69
2022/01/01 07:50:48;;;;;;;23.05;15.50;;;8.40;34.30;;;;;;5041409;28;20083;-68
2022/01/01 07:53:16;;;;;;;23.13;14.18;;;8.50;34.20;;;;;;5051414;28;20055;-69
2022/01/01 07:55:44;;;;;;;25.05;15.15;;;8.40;33.30;;;;;;5046335;28;20099;-68
2022/01/01 07:58:13;;;;;;;23.73;14.75;;;8.40;34.60;;;;;;5047613;28;20134;-67
2022/01/01 08:00:41;;;;;;;20.25;13.25;;;8.30;34.60;;;;;;5042046;28;20044;-68
2022/01/01 08:03:12;;;;;;;22.00;13.88;;;8.40;34.10;;;;;;5043675;28;20056;-68
2022/01/01 08:05:41;;;;;;;22.23;13.70;;;8.40;33.30;;;;;;5044594;28;20100;-68
2022/01/01 08:08:09;;;;;;;20.55;13.57;;;8.50;32.50;;;;;;5048864;28;20076;-68
2022/01/01 08:10:39;;;;;;;23.48;14.35;;;8.60;31.60;;;;;;5043050;28;20049;-69
2022/01/01 08:13:09;;;;;;;23.17;14.63;;;8.60;31.70;;;;;;5048219;28;20413;-68
2022/01/01 08:15:37;;;;;;;20.65;13.20;;;8.60;31.10;;;;;;5048555;28;20064;-68
2022/01/01 08:18:05;;;;;;;20.13;13.85;;;8.60;32.50;;;;;;5043279;28;20037;-68
2022/01/01 08:20:39;;;;;;;21.85;13.95;;;8.60;32.40;;;;;;5042726;28;20102;-67
2022/01/01 08:23:08;;;;;;;18.15;12.95;;;8.60;31.60;;;;;;5046063;28;20535;-68
2022/01/01 08:25:37;;;;;;;18.05;12.00;;;8.60;32.00;;;;;;5044772;28;20048;-67
2022/01/01 08:28:06;;;;;;;18.88;13.05;;;8.60;32.60;;;;;;5049230;28;20061;-67
2022/01/01 08:30:35;;;;;;;18.50;12.65;;;8.70;32.00;;;;;;5045092;28;20053;-69
2022/01/01 08:33:03;;;;;;;20.23;12.52;;;8.80;30.80;;;;;;5045126;28;20508;-66
2022/01/01 08:35:32;;;;;;;18.38;11.65;;;8.80;30.00;;;;;;5047298;28;20069;-67
2022/01/01 08:38:04;;;;;;;16.13;10.30;;;8.90;29.90;;;;;;5047216;28;20049;-68
2022/01/01 08:40:33;;;;;;;18.17;11.38;;;9.00;29.00;;;;;;5041740;28;20138;-68
2022/01/01 08:43:02;;;;;;;16.00;11.05;;;9.00;27.80;;;;;;5046382;28;20051;-68
2022/01/01 08:45:34;;;;;;;14.90;10.18;;;9.00;26.70;;;;;;5047113;28;20485;-68
2022/01/01 08:48:02;;;;;;;14.68;9.75;;;9.10;27.10;;;;;;5046759;28;20412;-68
2022/01/01 08:50:30;;;;;;;16.67;10.55;;;9.20;26.90;;;;;;5042857;28;20564;-67
2022/01/01 08:52:58;;;;;;;15.63;9.70;;;9.30;25.80;;;;;;5047919;28;20080;-69
2022/01/01 08:55:29;;;;;;;18.35;11.05;;;9.30;25.30;;;;;;5043143;28;20137;-69
2022/01/01 08:57:56;;;;;;;19.58;12.18;;;9.40;25.70;;;;;;5049432;28;20624;-67
2022/01/01 09:00:46;;;;;;;20.33;12.60;;;9.40;25.80;;;;;;5042997;28;20033;-68
2022/01/01 09:03:15;;;;;;;18.35;12.32;;;9.30;26.30;;;;;;5043755;28;20052;-68
2022/01/01 09:05:43;;;;;;;20.88;13.07;;;9.30;26.20;;;;;;5049942;28;20045;-67
2022/01/01 09:08:31;;;;;;;17.85;11.63;;;9.30;26.60;;;;;;5037998;28;20048;-69
2022/01/01 09:11:01;;;;;;;18.98;12.63;;;9.30;26.60;;;;;;5041229;28;20084;-69
2022/01/01 09:13:29;;;;;;;21.45;14.18;;;9.20;26.30;;;;;;5046493;28;20522;-69
2022/01/01 09:15:57;;;;;;;21.30;14.10;;;9.40;25.90;;;;;;5046082;28;20056;-68
2022/01/01 09:18:25;;;;;;;16.02;10.70;;;9.40;25.80;;;;;;5044065;28;20135;-69
2022/01/01 09:20:53;;;;;;;16.38;11.70;;;9.50;25.40;;;;;;5043441;28;20045;-68
2022/01/01 09:23:26;;;;;;;18.98;11.48;;;9.50;25.90;;;;;;5050451;28;20500;-68
2022/01/01 09:25:54;;;;;;;17.95;11.82;;;9.50;25.00;;;;;;5044318;28;20059;-68
2022/01/01 09:28:24;;;;;;;18.83;12.38;;;9.70;25.20;;;;;;5047784;28;20049;-68
2022/01/01 09:30:52;;;;;;;14.70;11.32;;;9.70;25.00;;;;;;5042711;28;20041;-68
2022/01/01 09:33:20;;;;;;;19.45;12.80;;;9.90;24.10;;;;;;5042911;28;20041;-69
2022/01/01 09:35:48;;;;;;;18.80;12.38;;;10.10;22.10;;;;;;5052085;28;20051;-68
2022/01/01 09:38:16;;;;;;;17.77;10.80;;;10.20;21.50;;;;;;5053181;28;20079;-69
2022/01/01 09:40:44;;;;;;;17.40;11.45;;;10.30;19.90;;;;;;5038498;28;20045;-68
2022/01/01 09:43:13;;;;;;;13.02;9.07;;;10.50;19.70;;;;;;5045011;28;20405;-68
2022/01/01 09:45:43;;;;;;;13.93;9.75;;;10.60;18.90;;;;;;5047618;28;20072;-69
2022/01/01 09:48:12;;;;;;;11.65;8.25;;;10.80;18.50;;;;;;5041791;28;20051;-68
2022/01/01 09:50:42;;;;;;;8.23;6.07;;;11.00;16.70;;;;;;5044028;28;20548;-69
2022/01/01 09:53:10;;;;;;;9.20;6.07;;;11.10;15.20;;;;;;5047185;28;20045;-67
2022/01/01 09:55:37;;;;;;;10.68;6.20;;;11.10;14.90;;;;;;5041695;28;20112;-68
2022/01/01 09:58:05;;;;;;;11.63;7.10;;;11.20;15.60;;;;;;5046204;28;21428;-68
2022/01/01 10:00:34;;;;;;;8.52;6.07;;;11.30;15.00;;;;;;5036837;28;21088;-69
2022/01/01 10:03:05;;;;;;;9.02;5.70;;;11.30;14.60;;;;;;5041801;28;20060;-69
2022/01/01 10:05:33;;;;;;;6.82;5.15;;;11.40;14.20;;;;;;5044208;28;20069;-68
2022/01/01 10:08:02;;;;;;;9.65;5.80;;;11.40;14.10;;;;;;5056902;28;20530;-68
2022/01/01 10:10:30;;;;;;;7.82;5.25;;;11.40;13.80;;;;;;5060481;28;20056;-68
2022/01/01 10:12:58;;;;;;;6.95;4.45;;;11.40;14.60;;;;;;5062795;28;20060;-69
2022/01/01 10:15:25;;;;;;;6.00;4.60;;;11.50;14.30;;;;;;5064605;28;20040;-68
2022/01/01 10:17:54;;;;;;;6.05;4.15;;;11.60;12.90;;;;;;5063637;28;20069;-68
2022/01/01 10:20:23;;;;;;;6.25;4.30;;;11.60;13.00;;;;;;5063360;28;20053;-68
2022/01/01 10:22:53;;;;;;;9.10;6.32;;;11.70;12.60;;;;;;5060227;28;20732;-68
2022/01/01 10:28:08;;;;;;;5.65;3.00;;;11.70;14.00;;;;;;5073583;28;20049;-69
2022/01/01 10:30:40;;;;;;;5.63;3.55;;;11.80;12.70;;;;;;5061825;28;20048;-69
2022/01/01 10:33:10;;;;;;;5.28;3.67;;;11.90;11.80;;;;;;5065372;28;20052;-68
2022/01/01 10:35:42;;;;;;;8.52;4.22;;;11.90;11.40;;;;;;5068709;28;20076;-68
2022/01/01 10:38:13;;;;;;;7.25;4.30;;;12.00;11.30;;;;;;5062551;28;20040;-68
2022/01/01 10:40:41;;;;;;;5.53;4.18;;;12.10;11.30;;;;;;5058540;28;20040;-68
2022/01/01 10:43:10;;;;;;;9.48;5.60;;;12.10;11.20;;;;;;5064368;28;20041;-68
2022/01/01 10:45:40;;;;;;;6.90;5.10;;;12.10;11.20;;;;;;5045898;28;20456;-67
2022/01/01 10:48:18;;;;;;;9.73;5.65;;;12.20;10.80;;;;;;5047862;28;20139;-68
2022/01/01 10:50:49;;;;;;;6.75;5.15;;;12.20;10.90;;;;;;5043669;28;20404;-68
2022/01/01 10:53:22;;;;;;;6.90;5.28;;;12.30;10.00;;;;;;5058260;28;20056;-69
2022/01/01 10:55:53;;;;;;;9.55;6.32;;;12.30;10.00;;;;;;5055006;28;20063;-69
2022/01/01 10:58:24;;;;;;;10.23;6.07;;;12.30;9.30;;;;;;5048398;28;20140;-68
2022/01/01 11:00:52;;;;;;;11.25;6.60;;;12.40;10.20;;;;;;5044427;28;20049;-68
2022/01/01 11:03:21;;;;;;;10.52;6.68;;;12.50;9.50;;;;;;5045669;28;20061;-68
2022/01/01 11:05:53;;;;;;;10.85;6.75;;;12.50;9.30;;;;;;5067496;28;20447;-68
2022/01/01 11:08:21;;;;;;;12.82;7.15;;;12.60;8.90;;;;;;5054942;28;20042;-68
2022/01/01 11:10:49;;;;;;;11.43;7.07;;;12.70;8.70;;;;;;5048202;28;20643;-69
2022/01/01 11:13:18;;;;;;;10.70;7.47;;;12.70;8.40;;;;;;5062666;28;20040;-68
2022/01/01 11:15:46;;;;;;;10.80;7.50;;;12.70;8.60;;;;;;5047815;28;20139;-69
2022/01/01 11:18:15;;;;;;;9.23;6.60;;;12.60;8.60;;;;;;5045295;28;20112;-69
2022/01/01 11:20:44;;;;;;;10.48;7.85;;;12.70;7.90;;;;;;5048572;28;20152;-68
2022/01/01 11:23:13;;;;;;;11.50;6.97;;;12.80;8.10;;;;;;5043137;28;20072;-68
2022/01/01 11:25:42;;;;;;;10.02;6.63;;;12.80;7.80;;;;;;5043268;28;20050;-68
2022/01/01 11:28:12;;;;;;;9.90;6.25;;;12.80;7.30;;;;;;5050816;28;20496;-68
2022/01/01 11:30:45;;;;;;;18.02;13.10;;;12.80;7.40;;;;;;5042751;28;20124;-69
2022/01/01 11:33:17;;;;;;;23.38;15.55;;;12.90;7.20;;;;;;5062696;28;20063;-69
2022/01/01 11:35:52;;;;;;;9.77;6.88;;;13.00;6.10;;;;;;5075842;28;20044;-69
2022/01/01 11:38:22;;;;;;;10.02;6.32;;;12.90;6.60;;;;;;5054117;28;20041;-68
2022/01/01 11:40:57;;;;;;;9.52;5.53;;;12.90;7.50;;;;;;5044327;28;20086;-68
2022/01/01 11:43:37;;;;;;;7.53;5.55;;;13.00;6.10;;;;;;5049288;28;20045;-68
2022/01/01 11:46:08;;;;;;;12.57;5.60;;;13.10;4.20;;;;;;5048062;28;20061;-68
2022/01/01 11:48:50;;;;;;;9.90;5.95;;;13.10;3.50;;;;;;5044637;28;20092;-68
2022/01/01 11:51:36;;;;;;;9.68;5.85;;;13.10;3.70;;;;;;5044100;28;20140;-68
2022/01/01 11:54:10;;;;;;;12.05;5.70;;;13.10;3.90;;;;;;5048665;28;20056;-68
2022/01/01 11:57:07;;;;;;;9.30;6.25;;;13.10;3.50;;;;;;5043725;28;20146;-68
2022/01/01 11:59:46;;;;;;;7.35;5.78;;;13.10;2.90;;;;;;5021321;28;20056;-68
2022/01/01 12:02:34;;;;;;;8.52;5.35;;;13.20;3.00;;;;;;5046584;28;20040;-68
2022/01/01 12:05:22;;;;;;;14.43;9.70;;;13.30;1.90;;;;;;5047045;28;20500;-68
2022/01/01 12:07:53;;;;;;;10.52;5.97;;;13.30;1.90;;;;;;5048423;28;20135;-68
2022/01/01 12:10:36;;;;;;;9.07;5.85;;;13.30;1.00;;;;;;5047537;28;20095;-68
2022/01/01 12:13:07;;;;;;;6.57;5.32;;;13.30;1.00;;;;;;5050389;28;20102;-69
2022/01/01 12:15:48;;;;;;;7.05;5.40;;;13.30;1.10;;;;;;5042756;28;20055;-68
2022/01/01 12:18:20;;;;;;;8.70;5.07;;;13.30;1.00;;;;;;5047079;28;20084;-67
2022/01/01 12:20:52;;;;;;;8.07;5.55;;;13.30;1.40;;;;;;5045543;28;20535;-67
2022/01/01 12:23:22;;;;;;;7.95;5.22;;;13.40;1.50;;;;;;5060848;28;20051;-68
2022/01/01 12:25:54;;;;;;;7.18;5.68;;;13.30;1.00;;;;;;5054197;28;20060;-69
2022/01/01 12:28:25;;;;;;;8.10;6.20;;;13.40;1.30;;;;;;5051186;28;20045;-68
2022/01/01 12:30:55;;;;;;;8.60;5.53;;;13.30;1.00;;;;;;5041151;28;20078;-68
2022/01/01 12:33:44;;;;;;;7.18;5.40;;;13.30;1.20;;;;;;5042727;28;20047;-69
2022/01/01 12:36:14;;;;;;;8.85;6.13;;;13.30;1.00;;;;;;5048924;28;20480;-68
2022/01/01 12:38:49;;;;;;;8.13;5.20;;;13.30;1.70;;;;;;5047720;28;20215;-69
2022/01/01 12:41:19;;;;;;;11.65;5.75;;;13.20;2.10;;;;;;5037112;28;20071;-67
2022/01/01 12:43:49;;;;;;;9.02;5.85;;;13.30;1.10;;;;;;5048370;28;20071;-67
2022/01/01 12:46:20;;;;;;;10.95;5.32;;;13.30;1.90;;;;;;5044548;28;20143;-67
2022/01/01 12:48:49;;;;;;;9.77;5.72;;;13.20;2.00;;;;;;5045048;28;20500;-69
2022/01/01 12:51:20;;;;;;;6.75;4.35;;;13.10;2.50;;;;;;5043694;28;20500;-68
2022/01/01 12:53:55;;;;;;;6.85;5.03;;;13.30;1.60;;;;;;5042705;28;20069;-68
2022/01/01 12:56:26;;;;;;;7.20;5.05;;;13.30;1.00;;;;;;5042633;28;20087;-68